Time;durP1;ratioP1;P1;durP2;ratioP2;P2;SDS_P1;SDS_P2;PMS_P1;PMS_P2;Temp;Humidity;BMP_temperature;BMP_pressure;BME280_temperature;BME280_humidity;BME280_pressure;Samples;Min_cycle;Max_cycle;Signal;HPM_P1;HPM_P2
2023/06/23 00:01:40;;;;;;;7.90;6.15;;;19.00;99.90;;;;;;5000308;28;20033;-92
2023/06/23 00:04:06;;;;;;;7.05;6.28;;;19.00;99.90;;;;;;5016989;28;20026;-94
2023/06/23 00:06:33;;;;;;;7.90;6.82;;;19.00;99.90;;;;;;4980741;28;20026;-93
2023/06/23 00:09:00;;;;;;;9.38;5.90;;;19.00;99.90;;;;;;4996715;28;20033;-92
2023/06/23 00:11:27;;;;;;;7.80;6.65;;;18.90;99.90;;;;;;4997926;28;20036;-94
2023/06/23 00:13:53;;;;;;;7.30;6.60;;;18.90;99.90;;;;;;4997034;28;20022;-93
2023/06/23 00:16:19;;;;;;;7.90;6.03;;;18.80;99.90;;;;;;4984326;28;20023;-93
2023/06/23 00:18:44;;;;;;;7.43;6.72;;;18.80;99.90;;;;;;4983929;28;20047;-93
2023/06/23 00:21:14;;;;;;;9.02;6.47;;;18.80;99.90;;;;;;4961316;28;20059;-93
2023/06/23 00:23:44;;;;;;;7.15;6.32;;;18.80;99.90;;;;;;4960296;28;20110;-93
2023/06/23 00:26:13;;;;;;;6.90;6.00;;;18.70;99.90;;;;;;4964860;28;20034;-93
2023/06/23 00:28:39;;;;;;;6.22;5.38;;;18.80;99.90;;;;;;4980538;28;20026;-92
2023/06/23 00:31:05;;;;;;;6.00;5.40;;;18.70;99.90;;;;;;4979815;28;20030;-91
2023/06/23 00:33:33;;;;;;;7.18;6.10;;;18.70;99.90;;;;;;4980192;28;20065;-93
2023/06/23 00:35:59;;;;;;;6.53;5.32;;;18.70;99.90;;;;;;4963971;28;20066;-94
2023/06/23 00:38:25;;;;;;;7.45;5.63;;;18.70;99.90;;;;;;4971448;28;20027;-94
2023/06/23 00:40:53;;;;;;;8.43;5.85;;;18.70;99.90;;;;;;4960978;28;20555;-95
2023/06/23 00:43:22;;;;;;;7.50;5.88;;;18.70;99.90;;;;;;4978082;28;20037;-93
2023/06/23 00:45:49;;;;;;;6.22;5.50;;;18.70;99.90;;;;;;4977355;28;20061;-92
2023/06/23 00:48:15;;;;;;;7.10;5.97;;;18.70;99.90;;;;;;4964004;28;20030;-94
2023/06/23 00:50:45;;;;;;;6.55;5.88;;;18.80;99.90;;;;;;4964228;28;20041;-94
2023/06/23 00:53:14;;;;;;;6.70;5.45;;;18.80;99.90;;;;;;4980002;28;20029;-95
2023/06/23 00:55:40;;;;;;;8.35;6.38;;;18.80;99.90;;;;;;4980179;28;20026;-94
2023/06/23 00:58:08;;;;;;;7.60;5.97;;;18.80;99.90;;;;;;4979539;28;20395;-93
2023/06/23 01:00:35;;;;;;;8.38;6.45;;;18.80;99.90;;;;;;4964682;28;20037;-94
2023/06/23 01:03:02;;;;;;;6.88;6.05;;;18.80;99.90;;;;;;4980591;28;20058;-94
2023/06/23 01:05:37;;;;;;;9.02;5.95;;;18.70;99.90;;;;;;4979758;28;20158;-95
2023/06/23 01:08:36;;;;;;;7.50;5.47;;;18.70;99.90;;;;;;4979963;28;20143;-94
2023/06/23 01:11:08;;;;;;;7.60;6.38;;;18.70;99.90;;;;;;4979129;28;20030;-92
2023/06/23 01:13:51;;;;;;;7.45;5.55;;;18.70;99.90;;;;;;4970284;28;20551;-95
2023/06/23 01:16:31;;;;;;;7.22;6.45;;;18.70;99.90;;;;;;4966256;28;20027;-94
2023/06/23 01:19:34;;;;;;;9.40;6.23;;;18.70;99.90;;;;;;4967771;28;20050;-93
2023/06/23 01:22:04;;;;;;;9.30;6.72;;;18.60;99.90;;;;;;4960563;28;20125;-94
2023/06/23 01:24:29;;;;;;;7.18;6.20;;;18.60;99.90;;;;;;4992565;28;20033;-92
2023/06/23 01:27:18;;;;;;;7.18;6.47;;;18.60;99.90;;;;;;4968730;28;20023;-95
2023/06/23 01:29:47;;;;;;;7.25;6.55;;;18.60;99.90;;;;;;4977621;28;20023;-93
2023/06/23 01:32:28;;;;;;;8.48;6.40;;;18.60;99.90;;;;;;4977039;28;20023;-94
2023/06/23 01:35:07;;;;;;;7.72;6.28;;;18.60;99.90;;;;;;4990899;28;20034;-93
2023/06/23 01:37:36;;;;;;;7.53;6.82;;;18.60;99.90;;;;;;4996630;28;20077;-93
2023/06/23 01:40:23;;;;;;;7.38;6.65;;;18.60;99.90;;;;;;4995794;28;20030;-94
2023/06/23 01:42:56;;;;;;;8.07;6.38;;;18.60;99.90;;;;;;5001697;28;20035;-93
2023/06/23 01:45:25;;;;;;;7.18;6.32;;;18.50;99.90;;;;;;4992830;28;20412;-92
2023/06/23 01:47:52;;;;;;;7.97;6.65;;;18.50;99.90;;;;;;4973894;28;20104;-93
2023/06/23 01:50:19;;;;;;;7.10;6.40;;;18.50;99.90;;;;;;4996962;28;20034;-93
2023/06/23 01:52:47;;;;;;;8.68;6.82;;;18.50;99.90;;;;;;4978516;28;20491;-94
2023/06/23 01:55:17;;;;;;;7.47;6.40;;;18.50;99.90;;;;;;4994905;28;20486;-92
2023/06/23 01:57:44;;;;;;;7.45;6.47;;;18.50;99.90;;;;;;4999103;28;20022;-93
2023/06/23 02:00:16;;;;;;;6.72;6.10;;;18.40;99.90;;;;;;4995115;28;20038;-93
2023/06/23 02:02:47;;;;;;;9.32;6.65;;;18.40;99.90;;;;;;4982639;28;20065;-91
2023/06/23 02:05:16;;;;;;;7.00;6.38;;;18.40;99.90;;;;;;4969208;28;20030;-92
2023/06/23 02:07:45;;;;;;;7.13;6.43;;;18.40;99.90;;;;;;4959002;28;20018;-92
2023/06/23 02:10:17;;;;;;;7.75;6.35;;;18.30;99.90;;;;;;4978599;28;20023;-92
2023/06/23 02:12:45;;;;;;;7.18;6.47;;;18.30;99.90;;;;;;4994322;28;20027;-93
2023/06/23 02:15:14;;;;;;;7.28;6.47;;;18.30;99.90;;;;;;4995873;28;20034;-94
2023/06/23 02:17:42;;;;;;;8.40;6.55;;;18.30;99.90;;;;;;4993834;28;20487;-94
2023/06/23 02:20:15;;;;;;;7.28;6.57;;;18.30;99.90;;;;;;4961832;28;20058;-94
2023/06/23 02:22:45;;;;;;;7.30;6.40;;;18.30;99.90;;;;;;4996055;28;20070;-93
2023/06/23 02:25:12;;;;;;;7.75;6.50;;;18.30;99.90;;;;;;4970910;28;20516;-93
2023/06/23 02:27:42;;;;;;;8.02;7.15;;;18.30;99.90;;;;;;4966258;28;20030;-93
2023/06/23 02:30:09;;;;;;;7.07;6.38;;;18.30;99.90;;;;;;4970486;28;20022;-93
2023/06/23 02:32:35;;;;;;;7.53;6.50;;;18.30;99.90;;;;;;4966819;28;20049;-93
2023/06/23 02:35:03;;;;;;;7.50;6.80;;;18.20;99.90;;;;;;4952902;28;20484;-95
2023/06/23 02:37:33;;;;;;;7.43;6.72;;;18.20;99.90;;;;;;4974659;28;20419;-93
2023/06/23 02:40:09;;;;;;;7.88;6.90;;;18.20;99.90;;;;;;4975524;28;20105;-91
2023/06/23 02:42:41;;;;;;;8.57;6.68;;;18.20;99.90;;;;;;4967758;28;20037;-94
2023/06/23 02:45:15;;;;;;;8.90;7.82;;;18.20;99.90;;;;;;4994198;28;20143;-93
2023/06/23 02:47:43;;;;;;;9.80;7.13;;;18.20;99.90;;;;;;4972186;28;20051;-94
2023/06/23 02:50:14;;;;;;;8.60;7.70;;;18.20;99.90;;;;;;4959938;28;20493;-94
2023/06/23 02:52:45;;;;;;;8.68;7.50;;;18.20;99.90;;;;;;4967405;28;20054;-95
2023/06/23 02:55:21;;;;;;;8.40;7.63;;;18.10;99.90;;;;;;4990902;28;20085;-94
2023/06/23 02:57:51;;;;;;;8.43;7.60;;;18.20;99.90;;;;;;4995711;28;20031;-93
2023/06/23 03:00:22;;;;;;;9.38;8.48;;;18.10;99.90;;;;;;4978066;28;20118;-95
2023/06/23 03:03:13;;;;;;;9.07;8.15;;;18.20;99.90;;;;;;4996097;28;20455;-94
2023/06/23 03:05:41;;;;;;;10.68;8.63;;;18.20;99.90;;;;;;4995290;28;20482;-94
2023/06/23 03:08:07;;;;;;;9.95;8.93;;;18.20;99.90;;;;;;4978023;28;20114;-94
2023/06/23 03:10:33;;;;;;;10.07;9.02;;;18.20;99.90;;;;;;4978070;28;20054;-94
2023/06/23 03:13:00;;;;;;;9.88;8.88;;;18.20;99.90;;;;;;4978126;28;20022;-90
2023/06/23 03:15:27;;;;;;;10.45;9.45;;;18.20;99.90;;;;;;4978030;28;20030;-93
2023/06/23 03:18:00;;;;;;;10.85;9.60;;;18.20;99.90;;;;;;4964603;28;20377;-91
2023/06/23 03:20:32;;;;;;;9.93;8.95;;;18.20;99.90;;;;;;4958766;28;20019;-95
2023/06/23 03:23:10;;;;;;;11.80;10.60;;;18.20;99.90;;;;;;4959154;28;20031;-94
2023/06/23 03:25:37;;;;;;;12.65;11.27;;;18.10;99.90;;;;;;4958937;28;20027;-92
2023/06/23 03:28:08;;;;;;;13.95;12.55;;;18.10;99.90;;;;;;4976290;28;20023;-95
2023/06/23 03:30:42;;;;;;;;;;;18.10;99.90;;;;;;4966991;28;20063;-94
2023/06/23 03:33:18;;;;;;;15.52;14.02;;;18.00;99.90;;;;;;4993198;28;19929;-93
2023/06/23 03:35:48;;;;;;;15.25;13.70;;;18.00;99.90;;;;;;4997955;28;20976;-94
2023/06/23 03:38:19;;;;;;;17.15;14.90;;;18.00;99.90;;;;;;4975710;28;20026;-94
2023/06/23 03:40:58;;;;;;;19.15;16.27;;;18.10;99.90;;;;;;4978784;28;20062;-94
2023/06/23 03:43:39;;;;;;;17.67;15.80;;;18.00;99.90;;;;;;4975919;28;20089;-94
2023/06/23 03:46:12;;;;;;;19.48;17.00;;;18.00;99.90;;;;;;4978003;28;20138;-93
2023/06/23 03:48:41;;;;;;;17.45;15.63;;;18.10;99.90;;;;;;4977191;28;20027;-93
2023/06/23 03:51:14;;;;;;;19.25;17.25;;;18.00;99.90;;;;;;4977478;28;20030;-91
2023/06/23 03:53:42;;;;;;;19.13;17.17;;;18.00;99.90;;;;;;4978094;28;20117;-94
2023/06/23 03:56:11;;;;;;;19.98;17.77;;;18.00;99.90;;;;;;4979112;28;20120;-95
2023/06/23 03:58:38;;;;;;;20.90;17.65;;;18.00;99.90;;;;;;4977802;28;20026;-93
2023/06/23 04:01:06;;;;;;;21.15;17.88;;;18.00;99.90;;;;;;4980925;28;20468;-94
2023/06/23 04:03:34;;;;;;;22.38;18.40;;;18.00;99.90;;;;;;4981208;28;20045;-95
2023/06/23 04:06:02;;;;;;;22.95;19.55;;;18.00;99.90;;;;;;4980957;28;20015;-93
2023/06/23 04:08:31;;;;;;;21.13;19.00;;;18.00;99.90;;;;;;4981090;28;20026;-92
2023/06/23 04:10:59;;;;;;;21.67;19.48;;;18.00;99.90;;;;;;4981099;28;20038;-94
2023/06/23 04:13:28;;;;;;;21.38;19.05;;;18.00;99.90;;;;;;4981020;28;20122;-93
2023/06/23 04:15:56;;;;;;;21.55;19.17;;;18.00;99.90;;;;;;4978683;28;20025;-94
2023/06/23 04:18:26;;;;;;;20.20;18.10;;;18.00;99.90;;;;;;4961141;28;20051;-93
2023/06/23 04:20:57;;;;;;;23.00;20.52;;;18.00;99.90;;;;;;4978501;28;20108;-93
2023/06/23 04:23:25;;;;;;;24.70;20.08;;;18.00;99.90;;;;;;4981281;28;20022;-93
2023/06/23 04:25:51;;;;;;;21.15;18.95;;;18.00;99.90;;;;;;4980531;28;20019;-94
2023/06/23 04:28:22;;;;;;;22.00;19.73;;;18.00;99.90;;;;;;4997832;28;20105;-93
2023/06/23 04:30:48;;;;;;;23.48;20.75;;;18.00;99.90;;;;;;4981032;28;20034;-92
2023/06/23 04:33:14;;;;;;;23.92;21.15;;;18.00;99.90;;;;;;4991412;28;20603;-92
2023/06/23 04:35:43;;;;;;;22.90;19.75;;;18.00;99.90;;;;;;5001137;28;20138;-92
2023/06/23 04:38:22;;;;;;;23.52;20.85;;;18.00;99.90;;;;;;4985723;28;20026;-92
2023/06/23 04:40:54;;;;;;;22.02;19.48;;;18.10;99.90;;;;;;5017665;28;20030;-95
2023/06/23 04:43:28;;;;;;;22.35;19.75;;;18.10;99.90;;;;;;4984161;28;20037;-93
2023/06/23 04:45:58;;;;;;;23.25;20.77;;;18.10;99.90;;;;;;5000580;28;20360;-92
2023/06/23 04:48:29;;;;;;;21.80;19.58;;;18.10;99.90;;;;;;5018135;28;20022;-94
2023/06/23 04:50:57;;;;;;;21.90;19.60;;;18.20;99.90;;;;;;5005912;28;20034;-93
2023/06/23 04:53:31;;;;;;;22.20;19.88;;;18.20;99.90;;;;;;4997700;28;20037;-92
2023/06/23 04:56:03;;;;;;;21.83;19.60;;;18.20;99.90;;;;;;5014526;28;20033;-91
2023/06/23 04:58:34;;;;;;;22.60;20.30;;;18.20;99.90;;;;;;5032118;28;20029;-93
2023/06/23 05:01:02;;;;;;;23.17;20.60;;;18.20;99.90;;;;;;5006006;28;20062;-92
2023/06/23 05:03:30;;;;;;;22.63;20.33;;;18.20;99.90;;;;;;5003062;28;20073;-93
2023/06/23 05:05:57;;;;;;;22.38;19.98;;;18.30;99.90;;;;;;5001979;28;20033;-92
2023/06/23 05:08:28;;;;;;;21.90;19.50;;;18.30;99.90;;;;;;4985546;28;20113;-93
2023/06/23 05:10:59;;;;;;;25.77;21.60;;;18.30;99.90;;;;;;5019406;28;20439;-94
2023/06/23 05:13:28;;;;;;;23.25;20.60;;;18.30;99.90;;;;;;5004505;28;20026;-93
2023/06/23 05:15:54;;;;;;;27.02;22.60;;;18.40;99.90;;;;;;5002481;28;20068;-93
2023/06/23 05:18:22;;;;;;;26.67;22.35;;;18.40;99.90;;;;;;5008107;28;20049;-93
2023/06/23 05:20:49;;;;;;;23.77;21.17;;;18.40;99.90;;;;;;5016326;28;20025;-91
2023/06/23 05:23:17;;;;;;;23.02;19.70;;;18.40;99.90;;;;;;4991841;28;20132;-93
2023/06/23 05:25:45;;;;;;;23.65;21.10;;;18.50;99.90;;;;;;5014779;28;20021;-93
2023/06/23 05:28:12;;;;;;;23.45;20.38;;;18.50;99.90;;;;;;5017621;28;20094;-92
2023/06/23 05:30:41;;;;;;;24.20;21.13;;;18.50;99.90;;;;;;5036270;28;20033;-87
2023/06/23 05:33:09;;;;;;;24.30;20.38;;;18.60;99.90;;;;;;5006658;28;20479;-92
2023/06/23 05:35:39;;;;;;;23.70;20.42;;;18.60;99.90;;;;;;5001476;28;20109;-93
2023/06/23 05:38:06;;;;;;;27.73;23.17;;;18.70;99.90;;;;;;4999429;28;20018;-92
2023/06/23 05:40:32;;;;;;;25.30;21.77;;;18.70;99.90;;;;;;4984214;28;20026;-91
2023/06/23 05:42:58;;;;;;;27.58;22.85;;;18.80;99.90;;;;;;4985612;28;20034;-92
2023/06/23 05:45:24;;;;;;;29.45;23.27;;;18.80;99.90;;;;;;4983497;28;20018;-94
2023/06/23 05:48:04;;;;;;;28.77;23.27;;;18.80;99.90;;;;;;4998753;28;20018;-93
2023/06/23 05:50:35;;;;;;;27.98;23.25;;;18.90;99.90;;;;;;4999811;28;20375;-94
2023/06/23 05:53:07;;;;;;;27.15;23.02;;;18.90;99.90;;;;;;4999902;28;20092;-93
2023/06/23 05:55:39;;;;;;;27.48;23.70;;;18.90;99.90;;;;;;4999104;28;20022;-91
2023/06/23 05:58:10;;;;;;;26.60;22.13;;;19.00;99.90;;;;;;4998777;28;20121;-94
2023/06/23 06:00:56;;;;;;;30.02;25.02;;;19.10;99.90;;;;;;5015991;28;20026;-92
2023/06/23 06:03:32;;;;;;;27.65;23.20;;;19.10;99.90;;;;;;4998878;28;20026;-92
2023/06/23 06:06:00;;;;;;;32.53;26.13;;;19.10;99.90;;;;;;4998579;28;20496;-92
2023/06/23 06:08:28;;;;;;;27.13;23.40;;;19.10;99.90;;;;;;5016014;28;20014;-94
2023/06/23 06:10:57;;;;;;;25.83;22.40;;;19.10;99.90;;;;;;4998821;28;20080;-93
2023/06/23 06:13:24;;;;;;;26.83;23.13;;;19.10;99.90;;;;;;4999576;28;20021;-93
2023/06/23 06:15:51;;;;;;;28.55;23.63;;;19.20;99.90;;;;;;4998329;28;20026;-92
2023/06/23 06:18:19;;;;;;;28.13;23.02;;;19.30;99.90;;;;;;4981407;28;20129;-93
2023/06/23 06:20:48;;;;;;;26.70;23.77;;;19.30;99.90;;;;;;4997496;28;20049;-93
2023/06/23 06:23:15;;;;;;;24.83;22.17;;;19.30;99.90;;;;;;5016560;28;20033;-95
2023/06/23 06:25:47;;;;;;;24.40;21.90;;;19.40;99.90;;;;;;5016578;28;20482;-94
2023/06/23 06:28:20;;;;;;;28.85;25.35;;;19.40;99.90;;;;;;4999993;28;20046;-94
2023/06/23 06:30:53;;;;;;;29.80;24.33;;;19.60;99.90;;;;;;4999925;28;20022;-94
2023/06/23 06:33:20;;;;;;;28.40;25.00;;;19.60;99.90;;;;;;5001011;28;20030;-94
2023/06/23 06:35:51;;;;;;;27.27;24.10;;;19.60;99.90;;;;;;4999620;28;20032;-93
2023/06/23 06:38:21;;;;;;;25.27;21.83;;;19.60;99.90;;;;;;5001237;28;20049;-93
2023/06/23 06:40:50;;;;;;;25.15;22.33;;;19.70;99.90;;;;;;4996553;28;20080;-95
2023/06/23 06:43:25;;;;;;;22.77;20.38;;;19.70;99.90;;;;;;5005113;28;20046;-95
2023/06/23 06:45:51;;;;;;;22.08;19.55;;;19.80;99.90;;;;;;4964150;28;20060;-94
2023/06/23 06:48:20;;;;;;;25.17;20.92;;;19.80;99.90;;;;;;4997105;28;20046;-95
2023/06/23 06:50:47;;;;;;;23.67;20.35;;;19.90;99.90;;;;;;5004321;28;20029;-88
2023/06/23 06:53:14;;;;;;;23.00;20.15;;;20.00;99.90;;;;;;5019333;28;20037;-94
2023/06/23 06:55:41;;;;;;;22.23;19.73;;;20.00;99.90;;;;;;5001786;28;20026;-93
2023/06/23 06:58:08;;;;;;;23.60;20.80;;;20.00;99.90;;;;;;5001472;28;20556;-94
2023/06/23 07:00:37;;;;;;;21.45;19.17;;;20.10;99.90;;;;;;4985700;28;20038;-96
2023/06/23 07:03:09;;;;;;;23.70;19.48;;;20.20;99.90;;;;;;5001863;28;20085;-95
2023/06/23 07:05:35;;;;;;;21.08;18.88;;;20.20;99.90;;;;;;5001724;28;20029;-95
2023/06/23 07:08:00;;;;;;;20.27;18.10;;;20.30;99.90;;;;;;5003872;28;20018;-95
2023/06/23 07:10:29;;;;;;;19.17;17.15;;;20.40;99.90;;;;;;4998803;28;20027;-94
2023/06/23 07:13:03;;;;;;;18.42;15.68;;;20.50;99.90;;;;;;5011715;28;20034;-95
2023/06/23 07:15:29;;;;;;;18.52;16.52;;;20.50;99.90;;;;;;5004500;28;20112;-94
2023/06/23 07:18:01;;;;;;;21.38;17.27;;;20.60;99.90;;;;;;5003151;28;20036;-92
2023/06/23 07:20:27;;;;;;;18.63;16.73;;;20.60;99.90;;;;;;4977885;28;20058;-92
2023/06/23 07:22:52;;;;;;;17.02;15.27;;;20.60;99.90;;;;;;5001734;28;20030;-89
2023/06/23 07:25:27;;;;;;;16.40;14.40;;;20.70;99.90;;;;;;4991770;28;20035;-95
2023/06/23 07:27:53;;;;;;;16.92;15.13;;;20.70;99.90;;;;;;4961592;28;20027;-91
2023/06/23 07:30:19;;;;;;;15.82;14.20;;;20.70;99.90;;;;;;4979807;28;20029;-91
2023/06/23 07:32:45;;;;;;;17.42;15.65;;;20.80;99.90;;;;;;4962872;28;20034;-92
2023/06/23 07:35:11;;;;;;;18.48;16.08;;;20.80;99.90;;;;;;4983328;28;20145;-94
2023/06/23 07:37:50;;;;;;;15.45;13.85;;;20.80;99.90;;;;;;4982664;28;20026;-94
2023/06/23 07:40:15;;;;;;;14.40;12.82;;;20.90;99.90;;;;;;4981588;28;20037;-94
2023/06/23 07:42:47;;;;;;;14.45;12.95;;;20.90;99.90;;;;;;4968456;28;20030;-94
2023/06/23 07:45:13;;;;;;;13.38;11.73;;;21.00;99.90;;;;;;4963988;28;20468;-93
2023/06/23 07:47:47;;;;;;;12.80;11.40;;;21.00;99.90;;;;;;4969158;28;20026;-94
2023/06/23 07:50:35;;;;;;;12.43;11.13;;;21.10;99.90;;;;;;4953193;28;20031;-93
2023/06/23 07:53:20;;;;;;;11.70;10.52;;;21.10;99.90;;;;;;4954831;28;20043;-93
2023/06/23 07:55:49;;;;;;;14.48;11.73;;;21.20;99.90;;;;;;4970569;28;20023;-94
2023/06/23 07:58:22;;;;;;;11.25;10.15;;;21.20;99.90;;;;;;4970348;28;20053;-94
2023/06/23 08:00:48;;;;;;;10.48;9.48;;;21.30;99.90;;;;;;4972405;28;20047;-95
2023/06/23 08:03:14;;;;;;;10.07;8.98;;;21.30;99.90;;;;;;4982217;28;20041;-95
2023/06/23 08:05:58;;;;;;;11.70;10.50;;;21.30;99.90;;;;;;5000663;28;20022;-94
2023/06/23 08:08:24;;;;;;;13.70;10.10;;;21.40;99.90;;;;;;5000475;28;20022;-92
2023/06/23 08:10:57;;;;;;;13.20;10.68;;;21.30;99.90;;;;;;4991534;28;20050;-94
2023/06/23 08:13:23;;;;;;;11.05;9.95;;;21.40;99.90;;;;;;4994815;28;20034;-93
2023/06/23 08:15:49;;;;;;;11.35;8.93;;;21.40;99.90;;;;;;4992410;28;20015;-94
2023/06/23 08:18:17;;;;;;;10.18;9.05;;;21.50;99.90;;;;;;4979915;28;20027;-93
2023/06/23 08:20:43;;;;;;;10.38;9.38;;;21.50;99.90;;;;;;4982090;28;20082;-95
2023/06/23 08:23:11;;;;;;;9.88;8.88;;;21.60;99.90;;;;;;4990363;28;20029;-94
2023/06/23 08:25:37;;;;;;;10.75;8.70;;;21.70;99.90;;;;;;4993090;28;20029;-94
2023/06/23 08:28:03;;;;;;;9.75;8.07;;;21.70;99.90;;;;;;5008828;28;20017;-93
2023/06/23 08:30:31;;;;;;;8.15;7.32;;;21.80;99.90;;;;;;5016597;28;20021;-93
2023/06/23 08:32:57;;;;;;;7.90;7.03;;;21.80;99.90;;;;;;5015762;28;20023;-93
2023/06/23 08:35:23;;;;;;;8.30;7.50;;;21.80;99.90;;;;;;5036728;28;20006;-92
2023/06/23 08:37:51;;;;;;;8.05;7.25;;;21.90;99.90;;;;;;5020925;28;20626;-92
2023/06/23 08:40:17;;;;;;;7.05;6.43;;;21.80;99.90;;;;;;5039352;28;20036;-91
2023/06/23 08:42:46;;;;;;;7.22;6.50;;;21.90;99.90;;;;;;5019676;28;20030;-93
2023/06/23 08:45:13;;;;;;;8.50;7.55;;;21.90;99.90;;;;;;5020976;28;20032;-94
2023/06/23 08:47:51;;;;;;;8.02;6.65;;;22.00;99.90;;;;;;5003618;28;20562;-93
2023/06/23 08:50:20;;;;;;;8.43;6.88;;;22.10;99.90;;;;;;5011062;28;20018;-94
2023/06/23 08:52:47;;;;;;;7.22;6.53;;;22.10;99.90;;;;;;5015777;28;20030;-96
2023/06/23 08:55:15;;;;;;;7.45;6.10;;;22.20;99.90;;;;;;5011029;28;20057;-95
2023/06/23 08:57:41;;;;;;;7.18;5.68;;;22.20;99.90;;;;;;5008203;28;20133;-93
2023/06/23 09:00:08;;;;;;;6.07;5.47;;;22.30;99.90;;;;;;5006843;28;20022;-94
2023/06/23 09:02:34;;;;;;;6.07;5.25;;;22.30;99.90;;;;;;5023503;28;20026;-92
2023/06/23 09:05:03;;;;;;;7.15;6.50;;;22.30;99.90;;;;;;5003262;28;20025;-93
2023/06/23 09:07:29;;;;;;;7.30;6.03;;;22.40;99.90;;;;;;5002809;28;20022;-92
2023/06/23 09:09:55;;;;;;;6.93;6.22;;;22.40;99.90;;;;;;5003418;28;20045;-93
2023/06/23 09:12:25;;;;;;;5.93;5.13;;;22.50;99.90;;;;;;5002387;28;20045;-93
2023/06/23 09:14:57;;;;;;;6.65;5.20;;;22.50;99.90;;;;;;4987634;28;20030;-93
2023/06/23 09:17:23;;;;;;;5.18;4.68;;;22.50;99.90;;;;;;5003348;28;20490;-93
2023/06/23 09:19:54;;;;;;;5.63;4.40;;;22.50;99.90;;;;;;4995565;28;20057;-94
2023/06/23 09:22:23;;;;;;;4.93;4.40;;;22.50;99.90;;;;;;5001104;28;20010;-95
2023/06/23 09:24:49;;;;;;;4.80;4.28;;;22.50;99.90;;;;;;4996842;28;20033;-92
2023/06/23 09:27:15;;;;;;;4.60;4.20;;;22.60;99.90;;;;;;4985844;28;20105;-94
2023/06/23 09:30:00;;;;;;;5.78;5.25;;;22.60;99.80;;;;;;5003083;28;20151;-93
2023/06/23 09:32:32;;;;;;;6.45;5.82;;;22.60;99.90;;;;;;4985381;28;20555;-95
2023/06/23 09:35:00;;;;;;;6.80;5.93;;;22.60;99.90;;;;;;4981889;28;20499;-95
2023/06/23 09:37:36;;;;;;;6.40;5.80;;;22.70;99.90;;;;;;4980128;28;20026;-95
2023/06/23 09:40:04;;;;;;;7.30;5.78;;;22.70;99.90;;;;;;4980115;28;20488;-95
2023/06/23 09:42:35;;;;;;;6.10;5.50;;;22.80;99.90;;;;;;4979498;28;20038;-93
2023/06/23 09:45:01;;;;;;;7.15;6.45;;;22.80;99.90;;;;;;4980282;28;20077;-95
2023/06/23 09:47:29;;;;;;;6.45;5.85;;;22.80;99.60;;;;;;4979141;28;20484;-94
2023/06/23 09:49:55;;;;;;;6.97;6.22;;;22.90;99.60;;;;;;4979310;28;20014;-92
2023/06/23 09:52:26;;;;;;;7.78;6.18;;;22.90;99.60;;;;;;4979161;28;20030;-94
2023/06/23 09:54:52;;;;;;;5.85;4.95;;;23.00;99.70;;;;;;4979569;28;20454;-93
2023/06/23 09:57:25;;;;;;;5.30;4.80;;;23.00;99.70;;;;;;4996791;28;20065;-93
2023/06/23 10:00:00;;;;;;;5.18;4.68;;;23.10;99.60;;;;;;4963873;28;20093;-94
2023/06/23 10:02:29;;;;;;;5.25;4.75;;;23.20;99.60;;;;;;4979532;28;20072;-93
2023/06/23 10:05:05;;;;;;;5.15;4.50;;;23.20;99.50;;;;;;4976459;28;20027;-93
2023/06/23 10:07:33;;;;;;;5.35;4.20;;;23.20;99.40;;;;;;4959929;28;20035;-94
2023/06/23 10:10:07;;;;;;;5.57;4.80;;;23.30;99.30;;;;;;4960555;28;20058;-92
2023/06/23 10:12:42;;;;;;;4.85;4.38;;;23.40;99.30;;;;;;4962602;28;20027;-94
2023/06/23 10:15:10;;;;;;;5.03;4.45;;;23.40;99.20;;;;;;4981678;28;20118;-92
2023/06/23 10:17:36;;;;;;;5.95;4.78;;;23.50;99.10;;;;;;4962217;28;20425;-92
2023/06/23 10:20:06;;;;;;;7.43;4.53;;;23.50;99.00;;;;;;4946590;28;20050;-92
2023/06/23 10:22:33;;;;;;;5.33;4.60;;;23.50;98.90;;;;;;5014080;28;20387;-93
2023/06/23 10:25:07;;;;;;;6.43;4.60;;;23.50;98.80;;;;;;5000487;28;20468;-94
2023/06/23 10:27:39;;;;;;;5.50;4.07;;;23.50;98.90;;;;;;4980193;28;20122;-96
2023/06/23 10:30:29;;;;;;;4.78;4.05;;;23.40;98.70;;;;;;4966493;28;20094;-93
2023/06/23 10:33:14;;;;;;;4.03;3.45;;;23.40;98.50;;;;;;4950115;28;20043;-95
2023/06/23 10:35:41;;;;;;;4.18;3.38;;;23.50;98.40;;;;;;4956095;28;20035;-93
2023/06/23 10:38:10;;;;;;;4.13;3.25;;;23.50;98.20;;;;;;4966155;28;20031;-95
2023/06/23 10:40:51;;;;;;;4.60;3.63;;;23.50;97.10;;;;;;4996795;28;20026;-95
2023/06/23 10:43:21;;;;;;;4.00;3.60;;;23.60;97.40;;;;;;4978162;28;20027;-93
2023/06/23 10:45:56;;;;;;;4.13;3.70;;;23.60;97.50;;;;;;4976808;28;20018;-95
2023/06/23 10:48:24;;;;;;;3.45;3.15;;;23.60;96.90;;;;;;4978507;28;20030;-92
2023/06/23 10:51:01;;;;;;;4.63;3.75;;;23.70;96.50;;;;;;4970217;28;20018;-94
2023/06/23 10:53:42;;;;;;;;;;;;;;;;;;;;;
2023/06/23 10:56:08;;;;;;;3.30;3.00;;;23.80;95.60;;;;;;4991035;28;20034;-93
2023/06/23 10:58:50;;;;;;;3.00;2.70;;;23.90;95.90;;;;;;4966082;28;20121;-92
2023/06/23 11:01:16;;;;;;;3.42;3.13;;;23.80;95.70;;;;;;4966273;28;20029;-93
2023/06/23 11:03:41;;;;;;;3.78;3.45;;;23.90;95.60;;;;;;4979170;28;20030;-94
2023/06/23 11:06:09;;;;;;;4.28;3.38;;;23.90;95.30;;;;;;4978850;28;20049;-94
2023/06/23 11:08:47;;;;;;;3.13;2.83;;;23.90;95.50;;;;;;4963739;28;20045;-93
2023/06/23 11:11:18;;;;;;;3.10;2.80;;;23.90;95.40;;;;;;4982728;28;20030;-93
2023/06/23 11:13:48;;;;;;;2.83;2.63;;;24.00;95.50;;;;;;4967502;28;20018;-94
2023/06/23 11:16:25;;;;;;;4.10;3.00;;;24.00;95.60;;;;;;5000175;28;20034;-93
2023/06/23 11:18:53;;;;;;;3.25;2.90;;;24.10;95.40;;;;;;4989851;28;20042;-94
2023/06/23 11:21:41;;;;;;;5.18;3.10;;;24.10;95.20;;;;;;5003776;28;20129;-92
2023/06/23 11:24:18;;;;;;;3.40;2.83;;;24.10;95.00;;;;;;5034508;28;20074;-93
2023/06/23 11:27:11;;;;;;;3.72;3.00;;;24.20;94.30;;;;;;5037919;28;20041;-92
2023/06/23 11:29:37;;;;;;;3.10;2.33;;;24.30;93.40;;;;;;5014814;28;20033;-93
2023/06/23 11:32:04;;;;;;;2.80;2.50;;;24.30;93.50;;;;;;5003423;28;20033;-94
2023/06/23 11:34:54;;;;;;;3.10;2.67;;;24.30;93.80;;;;;;5003289;28;20089;-93
2023/06/23 11:37:33;;;;;;;2.60;2.40;;;24.30;94.10;;;;;;5001863;28;20014;-94
2023/06/23 11:40:00;;;;;;;3.38;2.75;;;24.30;94.20;;;;;;5001373;28;20026;-91
2023/06/23 11:42:27;;;;;;;2.47;2.28;;;24.30;93.70;;;;;;5001352;28;20026;-94
2023/06/23 11:44:56;;;;;;;3.53;2.60;;;24.30;93.70;;;;;;5001671;28;20026;-93
2023/06/23 11:47:27;;;;;;;4.20;2.92;;;24.30;93.80;;;;;;5002861;28;20069;-92
2023/06/23 11:49:53;;;;;;;;;;;24.40;93.40;;;;;;5019668;28;20026;-93
2023/06/23 11:52:20;;;;;;;2.78;2.47;;;24.40;93.20;;;;;;5001635;28;19956;-91
2023/06/23 11:54:55;;;;;;;3.17;2.60;;;24.30;93.20;;;;;;5002448;28;20034;-94
2023/06/23 11:57:21;;;;;;;4.80;2.25;;;24.30;93.30;;;;;;5018596;28;20475;-91
2023/06/23 11:59:48;;;;;;;4.68;2.28;;;24.40;92.60;;;;;;5001346;28;20029;-93
2023/06/23 12:02:14;;;;;;;2.78;2.50;;;24.40;91.00;;;;;;5018565;28;20518;-93
2023/06/23 12:04:43;;;;;;;3.58;2.10;;;24.60;90.80;;;;;;5000389;28;20390;-94
2023/06/23 12:07:10;;;;;;;2.50;2.22;;;24.60;90.80;;;;;;4989107;28;20033;-92
2023/06/23 12:09:39;;;;;;;2.20;2.00;;;24.60;91.20;;;;;;5009946;28;20025;-95
2023/06/23 12:12:08;;;;;;;2.95;2.30;;;24.60;91.70;;;;;;5017706;28;20026;-92
2023/06/23 12:14:34;;;;;;;3.60;2.50;;;24.60;91.90;;;;;;4999878;28;20025;-93
2023/06/23 12:17:11;;;;;;;3.13;2.42;;;24.60;92.30;;;;;;5000067;28;20030;-93
2023/06/23 12:19:38;;;;;;;2.50;2.30;;;24.70;91.60;;;;;;4998375;28;20487;-88
2023/06/23 12:22:16;;;;;;;6.10;2.22;;;24.70;91.10;;;;;;4970010;28;20038;-88
2023/06/23 12:24:42;;;;;;;3.42;2.45;;;24.80;90.90;;;;;;4960120;28;20556;-90
2023/06/23 12:27:09;;;;;;;4.30;2.08;;;24.90;91.00;;;;;;4960182;28;20134;-89
2023/06/23 12:29:38;;;;;;;2.70;2.15;;;24.90;89.10;;;;;;4976242;28;20054;-89
2023/06/23 12:32:04;;;;;;;3.47;2.10;;;25.00;88.10;;;;;;4960391;28;20105;-90
2023/06/23 12:34:34;;;;;;;2.40;2.20;;;25.00;88.90;;;;;;4944245;28;20026;-89
2023/06/23 12:37:05;;;;;;;2.50;2.05;;;25.00;90.10;;;;;;4975492;28;20495;-90
2023/06/23 12:39:33;;;;;;;2.47;2.25;;;25.00;90.50;;;;;;4979526;28;20139;-89
2023/06/23 12:42:00;;;;;;;2.97;2.30;;;25.00;90.50;;;;;;4979429;28;20069;-89
2023/06/23 12:44:30;;;;;;;2.00;1.90;;;25.10;90.40;;;;;;4979396;28;20036;-87
2023/06/23 12:46:57;;;;;;;2.30;2.10;;;25.10;90.30;;;;;;4980180;28;20490;-89
2023/06/23 12:49:32;;;;;;;2.60;2.40;;;25.10;89.50;;;;;;4962273;28;20027;-89
2023/06/23 12:52:03;;;;;;;4.60;2.60;;;25.20;89.60;;;;;;4974995;28;20041;-89
2023/06/23 12:54:29;;;;;;;3.30;2.30;;;25.20;89.20;;;;;;4964680;28;20030;-90
2023/06/23 12:57:00;;;;;;;3.78;2.40;;;25.30;90.10;;;;;;4960394;28;20365;-88